Time;durP1;ratioP1;P1;durP2;ratioP2;P2;SDS_P1;SDS_P2;PMS_P1;PMS_P2;Temp;Humidity;BMP_temperature;BMP_pressure;BME280_temperature;BME280_humidity;BME280_pressure;Samples;Min_cycle;Max_cycle;Signal;HPM_P1;HPM_P2
2023/05/02 00:00:09;;;;;;;11.40;4.85;;;384.10;2329.60;;;;;;5015744;28;20024;-72
2023/05/02 00:02:35;;;;;;;8.40;4.40;;;384.10;2329.60;;;;;;5018690;28;20057;-72
2023/05/02 00:05:01;;;;;;;12.57;4.72;;;384.20;2329.60;;;;;;5024087;28;20132;-72
2023/05/02 00:07:27;;;;;;;5.72;4.00;;;384.20;2329.60;;;;;;5015686;28;20113;-72
2023/05/02 00:09:52;;;;;;;7.93;4.70;;;384.20;2329.60;;;;;;5018415;28;20047;-73
2023/05/02 00:12:19;;;;;;;8.30;5.10;;;384.20;2329.60;;;;;;5018540;28;20458;-73
2023/05/02 00:14:44;;;;;;;8.80;4.53;;;384.20;2329.60;;;;;;5026380;28;20382;-72
2023/05/02 00:17:19;;;;;;;6.38;4.35;;;384.30;2329.60;;;;;;5018258;28;20030;-72
2023/05/02 00:19:45;;;;;;;8.77;4.78;;;384.30;2329.60;;;;;;5013094;28;20025;-72
2023/05/02 00:22:11;;;;;;;12.57;4.20;;;384.40;2329.60;;;;;;5022714;28;20125;-72
2023/05/02 00:24:36;;;;;;;8.15;4.40;;;384.30;2329.60;;;;;;5019628;28;20525;-72
2023/05/02 00:27:02;;;;;;;9.38;4.80;;;384.40;2329.60;;;;;;5012956;28;20112;-72
2023/05/02 00:29:28;;;;;;;8.27;4.32;;;384.40;2329.60;;;;;;5015482;28;20053;-72
2023/05/02 00:31:54;;;;;;;9.70;4.72;;;384.30;2329.60;;;;;;5020992;28;20053;-72
2023/05/02 00:34:20;;;;;;;8.23;4.40;;;384.40;2329.60;;;;;;5024119;28;20022;-80
2023/05/02 00:36:46;;;;;;;8.02;4.45;;;384.40;2329.60;;;;;;5014694;28;20060;-72
2023/05/02 00:39:12;;;;;;;11.48;5.22;;;384.30;2329.60;;;;;;5018841;28;20013;-71
2023/05/02 00:41:38;;;;;;;10.13;4.85;;;384.10;2329.60;;;;;;5017673;28;20105;-73
2023/05/02 00:44:03;;;;;;;9.13;5.22;;;384.00;2329.60;;;;;;5045260;28;20462;-72
2023/05/02 00:46:30;;;;;;;10.88;5.43;;;359.30;2329.60;;;;;;5015658;28;20022;-72
2023/05/02 00:48:55;;;;;;;8.27;4.97;;;359.20;2329.60;;;;;;5022233;28;20064;-72
2023/05/02 00:51:22;;;;;;;9.32;5.00;;;359.10;2329.60;;;;;;5017802;28;20064;-73
2023/05/02 00:53:48;;;;;;;8.27;5.22;;;359.10;2329.60;;;;;;5018452;28;20042;-75
2023/05/02 00:56:14;;;;;;;10.55;6.05;;;359.00;2329.60;;;;;;5020663;28;20430;-73
2023/05/02 00:58:40;;;;;;;23.15;11.50;;;359.00;2329.60;;;;;;5016087;28;20018;-72
2023/05/02 01:01:23;;;;;;;16.30;9.75;;;359.00;2329.60;;;;;;5016064;28;20017;-72
2023/05/02 01:04:33;;;;;;;12.00;6.40;;;358.80;2329.60;;;;;;5021946;28;20017;-73
2023/05/02 01:07:08;;;;;;;9.93;5.40;;;358.90;2329.60;;;;;;5020593;28;20026;-72
2023/05/02 01:09:56;;;;;;;10.13;4.78;;;358.90;2329.60;;;;;;5018308;28;20101;-72
2023/05/02 01:12:33;;;;;;;10.35;4.78;;;359.00;2329.60;;;;;;5028237;28;20099;-80
2023/05/02 01:15:04;;;;;;;7.30;4.63;;;359.00;2329.60;;;;;;5018474;28;20021;-72
2023/05/02 01:17:33;;;;;;;13.10;4.55;;;359.20;2329.60;;;;;;5018193;28;20080;-71
2023/05/02 01:20:04;;;;;;;8.38;4.00;;;359.30;2329.60;;;;;;5015686;28;20108;-71
2023/05/02 01:22:32;;;;;;;5.82;3.75;;;384.00;2329.60;;;;;;5023830;28;20018;-72
2023/05/02 01:25:48;;;;;;;5.13;3.30;;;384.00;2329.60;;;;;;5015386;28;20026;-72
2023/05/02 01:28:52;;;;;;;5.72;3.40;;;384.20;2329.60;;;;;;5050516;28;20037;-73
2023/05/02 01:31:18;;;;;;;6.30;3.50;;;384.30;2329.60;;;;;;5051202;28;20025;-78
2023/05/02 01:33:45;;;;;;;10.02;3.60;;;384.40;2329.60;;;;;;5052989;28;20460;-78
2023/05/02 01:36:13;;;;;;;5.68;3.42;;;384.50;2329.60;;;;;;5052748;28;20047;-72
2023/05/02 01:38:42;;;;;;;7.38;3.38;;;384.50;2329.60;;;;;;5052643;28;20071;-72
2023/05/02 01:41:09;;;;;;;9.48;3.30;;;384.50;2329.60;;;;;;5052488;28;20037;-72
2023/05/02 01:43:37;;;;;;;8.75;3.28;;;384.40;2329.60;;;;;;5052712;28;20024;-78
2023/05/02 01:46:04;;;;;;;8.02;3.70;;;384.40;2329.60;;;;;;5052684;28;20061;-73
2023/05/02 01:48:31;;;;;;;8.70;3.45;;;384.20;2329.60;;;;;;5052722;28;20017;-73
2023/05/02 01:50:58;;;;;;;7.95;3.72;;;384.30;2329.60;;;;;;5052784;28;20037;-73
2023/05/02 01:53:29;;;;;;;5.90;3.33;;;384.30;2329.60;;;;;;5052255;28;20045;-73
2023/05/02 01:55:56;;;;;;;7.75;3.58;;;384.30;2329.60;;;;;;5052476;28;20037;-76
2023/05/02 01:58:24;;;;;;;8.07;3.85;;;384.30;2329.60;;;;;;5052695;28;20155;-72
2023/05/02 02:00:51;;;;;;;9.05;3.47;;;384.30;2329.60;;;;;;5052447;28;20025;-78
2023/05/02 02:03:18;;;;;;;6.03;3.58;;;384.40;2329.60;;;;;;5052332;28;20021;-72
2023/05/02 02:05:46;;;;;;;9.43;4.13;;;384.40;2329.60;;;;;;5018994;28;20029;-73
2023/05/02 02:08:12;;;;;;;7.28;3.60;;;384.40;2329.60;;;;;;5020012;28;20022;-73
2023/05/02 02:10:42;;;;;;;6.32;3.78;;;384.50;2329.60;;;;;;5020214;28;20029;-74
2023/05/02 02:13:23;;;;;;;4.97;2.97;;;384.60;2329.60;;;;;;5017519;28;20018;-73
2023/05/02 02:15:51;;;;;;;7.13;3.92;;;384.60;2329.60;;;;;;5019963;28;20022;-72
2023/05/02 02:18:25;;;;;;;5.47;3.30;;;384.70;2329.60;;;;;;5015597;28;20157;-79
2023/05/02 02:20:52;;;;;;;6.40;3.80;;;384.70;2329.60;;;;;;5023091;28;20497;-73
2023/05/02 02:23:22;;;;;;;6.70;3.55;;;384.70;2329.60;;;;;;5026518;28;20018;-73
2023/05/02 02:25:50;;;;;;;5.50;3.58;;;384.70;2329.60;;;;;;5015382;28;20173;-73
2023/05/02 02:28:15;;;;;;;6.75;3.47;;;384.70;2329.60;;;;;;5025992;28;20022;-73
2023/05/02 02:30:41;;;;;;;4.90;3.30;;;384.70;2329.60;;;;;;5024687;28;20028;-72
2023/05/02 02:33:07;;;;;;;7.57;3.70;;;384.70;2329.60;;;;;;5022448;28;20026;-78
2023/05/02 02:35:41;;;;;;;7.53;3.40;;;384.70;2329.60;;;;;;5025198;28;20621;-72
2023/05/02 02:38:11;;;;;;;16.08;3.70;;;384.60;2329.60;;;;;;5015384;28;20029;-72
2023/05/02 02:40:44;;;;;;;10.88;4.07;;;384.60;2329.60;;;;;;5022120;28;20028;-72
2023/05/02 02:43:29;;;;;;;13.55;3.85;;;384.70;2329.60;;;;;;5022419;28;20033;-79
2023/05/02 02:46:13;;;;;;;9.73;3.33;;;384.60;2329.60;;;;;;5022449;28;20561;-72
2023/05/02 02:48:57;;;;;;;10.18;3.88;;;384.60;2329.60;;;;;;5014794;28;20034;-72
2023/05/02 02:51:37;;;;;;;6.82;3.47;;;384.50;2329.60;;;;;;5016767;28;20392;-76
2023/05/02 02:54:40;;;;;;;8.45;3.38;;;384.40;2329.60;;;;;;5015082;28;20296;-72
2023/05/02 02:57:12;;;;;;;7.38;4.00;;;384.40;2329.60;;;;;;5019299;28;20036;-73
2023/05/02 02:59:47;;;;;;;5.60;3.60;;;384.30;2329.60;;;;;;5017352;28;20021;-74
2023/05/02 03:02:17;;;;;;;8.23;4.10;;;384.30;2329.60;;;;;;5019702;28;20080;-74
2023/05/02 03:04:45;;;;;;;5.95;3.40;;;384.30;2329.60;;;;;;5019210;28;20037;-74
2023/05/02 03:07:11;;;;;;;6.03;3.67;;;384.30;2329.60;;;;;;5018966;28;20084;-72
2023/05/02 03:09:44;;;;;;;8.60;4.05;;;384.40;2329.60;;;;;;5018801;28;20025;-72
2023/05/02 03:12:10;;;;;;;5.75;3.55;;;384.50;2329.60;;;;;;5016284;28;20392;-73
2023/05/02 03:14:37;;;;;;;7.05;3.83;;;384.50;2329.60;;;;;;5018252;28;20014;-73
2023/05/02 03:17:03;;;;;;;7.55;3.70;;;384.50;2329.60;;;;;;5016230;28;20057;-73
2023/05/02 03:19:28;;;;;;;8.07;3.70;;;384.50;2329.60;;;;;;5013605;28;20445;-72
2023/05/02 03:21:55;;;;;;;5.15;3.03;;;384.50;2329.60;;;;;;5021320;28;20030;-72
2023/05/02 03:24:21;;;;;;;7.78;3.90;;;384.60;2329.60;;;;;;5017048;28;20021;-77
2023/05/02 03:26:47;;;;;;;8.55;3.97;;;384.50;2329.60;;;;;;5026219;28;20022;-72
2023/05/02 03:29:13;;;;;;;6.35;3.83;;;384.50;2329.60;;;;;;5022915;28;20047;-72
2023/05/02 03:31:39;;;;;;;8.18;3.28;;;384.60;2278.40;;;;;;5016347;28;20010;-78
2023/05/02 03:34:05;;;;;;;5.70;3.38;;;384.70;2304.00;;;;;;5021975;28;20087;-76
2023/05/02 03:36:30;;;;;;;6.70;3.03;;;384.60;2304.00;;;;;;5014476;28;20466;-79
2023/05/02 03:38:56;;;;;;;5.07;3.65;;;384.60;2304.00;;;;;;5012912;28;20660;-72
2023/05/02 03:41:23;;;;;;;8.75;2.80;;;384.60;2329.60;;;;;;5015579;28;20018;-73
2023/05/02 03:43:49;;;;;;;6.68;3.47;;;384.60;2329.60;;;;;;5016430;28;20065;-72
2023/05/02 03:46:16;;;;;;;7.10;3.20;;;384.60;2304.00;;;;;;5018161;28;20022;-72
2023/05/02 03:48:42;;;;;;;7.03;3.85;;;384.60;2329.60;;;;;;5018295;28;20018;-72
2023/05/02 03:51:08;;;;;;;5.15;3.08;;;384.50;2329.60;;;;;;5023623;28;20572;-73
2023/05/02 03:53:35;;;;;;;5.38;3.78;;;384.50;2329.60;;;;;;5015197;28;20505;-73
2023/05/02 03:56:01;;;;;;;7.47;3.50;;;384.40;2329.60;;;;;;5023703;28;20022;-74
2023/05/02 03:58:27;;;;;;;4.63;3.58;;;384.40;2329.60;;;;;;5017560;28;20049;-72
2023/05/02 04:00:53;;;;;;;5.88;3.30;;;384.40;2329.60;;;;;;5020277;28;20021;-75
2023/05/02 04:03:19;;;;;;;7.32;3.22;;;384.40;2329.60;;;;;;5030022;28;20026;-73
2023/05/02 04:05:45;;;;;;;11.23;3.17;;;384.40;2329.60;;;;;;5023289;28;20022;-77
2023/05/02 04:08:12;;;;;;;7.40;3.35;;;384.40;2329.60;;;;;;5022492;28;20021;-72
2023/05/02 04:10:38;;;;;;;6.57;3.45;;;384.40;2329.60;;;;;;5015882;28;20048;-73
2023/05/02 04:13:04;;;;;;;7.53;3.38;;;384.40;2329.60;;;;;;5021543;28;20025;-72
2023/05/02 04:15:32;;;;;;;11.98;3.30;;;384.40;2329.60;;;;;;5028267;28;20032;-72
2023/05/02 04:17:58;;;;;;;8.85;3.90;;;384.40;2329.60;;;;;;5015016;28;20648;-77
2023/05/02 04:20:24;;;;;;;9.10;3.15;;;384.40;2329.60;;;;;;5016599;28;20483;-72
2023/05/02 04:22:50;;;;;;;8.30;3.42;;;384.40;2329.60;;;;;;5027754;28;20021;-71
2023/05/02 04:25:16;;;;;;;6.78;3.60;;;384.50;2329.60;;;;;;5027265;28;20045;-72
2023/05/02 04:27:42;;;;;;;6.88;3.33;;;384.60;2329.60;;;;;;5027174;28;20331;-72
2023/05/02 04:30:11;;;;;;;5.90;3.15;;;384.60;2329.60;;;;;;5027811;28;20021;-75
2023/05/02 04:32:37;;;;;;;4.95;2.90;;;384.90;2329.60;;;;;;5027631;28;20022;-73
2023/05/02 04:35:04;;;;;;;10.75;3.05;;;384.70;2329.60;;;;;;5031051;28;20025;-74
2023/05/02 04:37:30;;;;;;;7.28;3.08;;;384.90;2329.60;;;;;;5029030;28;20026;-75
2023/05/02 04:39:56;;;;;;;7.85;3.10;;;384.90;2329.60;;;;;;5029928;28;20017;-75
2023/05/02 04:42:22;;;;;;;7.95;3.38;;;384.90;2329.60;;;;;;5023719;28;20542;-74
2023/05/02 04:44:49;;;;;;;6.82;3.35;;;384.90;2329.60;;;;;;5031387;28;20371;-74
2023/05/02 04:47:14;;;;;;;12.43;3.00;;;409.60;2355.20;;;;;;5027645;28;20108;-71
2023/05/02 04:49:40;;;;;;;5.85;3.40;;;409.70;2355.20;;;;;;5028248;28;20108;-73
2023/05/02 04:52:06;;;;;;;4.43;2.88;;;409.70;2355.20;;;;;;5023568;28;20029;-72
2023/05/02 04:54:33;;;;;;;4.53;3.25;;;409.80;2355.20;;;;;;5024715;28;20030;-73
2023/05/02 04:57:01;;;;;;;9.95;3.28;;;409.90;2355.20;;;;;;5021636;28;20036;-72
2023/05/02 04:59:26;;;;;;;5.53;3.55;;;409.90;2355.20;;;;;;5031374;28;20014;-71
2023/05/02 05:01:52;;;;;;;9.88;3.65;;;410.00;2355.20;;;;;;5026948;28;20538;-73
2023/05/02 05:04:17;;;;;;;9.10;3.70;;;410.10;2355.20;;;;;;5025103;28;20022;-73
2023/05/02 05:06:43;;;;;;;7.28;3.58;;;410.20;2355.20;;;;;;5026255;28;20076;-74
2023/05/02 05:09:09;;;;;;;6.43;3.22;;;410.20;2355.20;;;;;;5027818;28;20529;-72
2023/05/02 05:11:35;;;;;;;4.97;3.47;;;410.30;2355.20;;;;;;5032027;28;20385;-72
2023/05/02 05:14:03;;;;;;;6.57;3.63;;;410.40;2355.20;;;;;;5022145;28;20017;-73
2023/05/02 05:16:29;;;;;;;6.75;4.05;;;410.50;2355.20;;;;;;5026453;28;20030;-73
2023/05/02 05:18:55;;;;;;;7.00;3.65;;;435.20;2355.20;;;;;;5028869;28;20025;-72
2023/05/02 05:21:20;;;;;;;12.82;3.30;;;435.20;2355.20;;;;;;5032214;28;20108;-73
2023/05/02 05:23:46;;;;;;;7.78;2.85;;;435.30;2355.20;;;;;;5027382;28;20029;-76
2023/05/02 05:26:15;;;;;;;6.85;3.22;;;435.40;2355.20;;;;;;5032629;28;20059;-73
2023/05/02 05:28:42;;;;;;;9.63;3.20;;;435.50;2355.20;;;;;;5032173;28;20025;-75
2023/05/02 05:31:15;;;;;;;7.70;4.00;;;435.60;2355.20;;;;;;5027016;28;20089;-73
2023/05/02 05:33:42;;;;;;;6.38;3.50;;;435.70;2355.20;;;;;;5023287;28;20041;-73
2023/05/02 05:36:13;;;;;;;9.52;3.65;;;435.80;2329.60;;;;;;5031278;28;20030;-72
2023/05/02 05:38:39;;;;;;;7.78;3.30;;;435.90;2304.00;;;;;;5025760;28;20091;-71
2023/05/02 05:41:06;;;;;;;8.30;3.20;;;436.00;2201.60;;;;;;5035247;28;20026;-74
2023/05/02 05:43:32;;;;;;;13.00;4.35;;;460.80;2304.00;;;;;;5029127;28;20025;-74
2023/05/02 05:45:58;;;;;;;9.48;3.97;;;460.80;2176.00;;;;;;5030955;28;20018;-74
2023/05/02 05:48:24;;;;;;;5.90;3.35;;;460.90;2124.80;;;;;;5023789;28;20025;-74
2023/05/02 05:50:51;;;;;;;13.18;3.70;;;461.00;2150.40;;;;;;5037159;28;20491;-74
2023/05/02 05:53:17;;;;;;;7.13;3.05;;;461.00;2099.20;;;;;;5031646;28;20436;-74
2023/05/02 05:55:42;;;;;;;7.90;3.67;;;461.10;2022.40;;;;;;5031114;28;20084;-73
2023/05/02 05:58:08;;;;;;;6.50;3.40;;;461.10;2073.60;;;;;;5033665;28;20033;-73
2023/05/02 06:00:34;;;;;;;13.38;4.03;;;461.20;2048.00;;;;;;5027956;28;20037;-73
2023/05/02 06:03:00;;;;;;;6.30;3.83;;;461.20;2124.80;;;;;;5026298;28;20075;-74
2023/05/02 06:05:26;;;;;;;6.25;3.85;;;461.40;2022.40;;;;;;5026932;28;20385;-73
2023/05/02 06:07:52;;;;;;;9.25;3.60;;;461.50;2048.00;;;;;;5033401;28;20017;-72
2023/05/02 06:10:18;;;;;;;7.80;3.97;;;461.60;2048.00;;;;;;5027907;28;20021;-72
2023/05/02 06:12:43;;;;;;;8.00;3.00;;;461.60;1996.80;;;;;;5028243;28;20105;-75
2023/05/02 06:15:09;;;;;;;8.00;3.92;;;461.70;1996.80;;;;;;5032386;28;20044;-73
2023/05/02 06:17:35;;;;;;;11.02;3.72;;;461.70;1945.60;;;;;;5032217;28;20122;-73
2023/05/02 06:20:01;;;;;;;11.43;3.72;;;486.40;1971.20;;;;;;5029172;28;20026;-72
2023/05/02 06:22:26;;;;;;;7.72;3.33;;;486.50;1920.00;;;;;;5025866;28;20029;-74
2023/05/02 06:24:52;;;;;;;7.47;3.40;;;486.50;1996.80;;;;;;5033731;28;20116;-74
2023/05/02 06:27:18;;;;;;;9.02;3.70;;;486.50;1920.00;;;;;;5029107;28;20036;-74
2023/05/02 06:29:43;;;;;;;8.25;3.75;;;486.70;1894.40;;;;;;5029582;28;20076;-73
2023/05/02 06:32:09;;;;;;;13.70;3.78;;;486.70;1894.40;;;;;;5030200;28;20037;-72
2023/05/02 06:34:35;;;;;;;10.75;4.40;;;486.70;1843.20;;;;;;5025251;28;20022;-72
2023/05/02 06:37:01;;;;;;;7.22;3.15;;;486.90;1894.40;;;;;;5032570;28;20563;-72
2023/05/02 06:39:26;;;;;;;12.27;3.60;;;486.90;1843.20;;;;;;5023383;28;20026;-72
2023/05/02 06:41:58;;;;;;;17.45;3.67;;;486.90;1817.60;;;;;;5028048;28;20021;-70
2023/05/02 06:44:24;;;;;;;9.63;3.35;;;486.90;1817.60;;;;;;5025692;28;20017;-71
2023/05/02 06:46:50;;;;;;;8.05;3.28;;;487.00;1817.60;;;;;;5032301;28;20473;-71
2023/05/02 06:49:16;;;;;;;7.47;3.95;;;487.00;1792.00;;;;;;5026765;28;20105;-71
2023/05/02 06:51:42;;;;;;;9.73;3.30;;;487.10;1792.00;;;;;;5028611;28;20022;-72
2023/05/02 06:54:07;;;;;;;13.15;3.03;;;487.10;1792.00;;;;;;5028976;28;20060;-75
2023/05/02 06:56:33;;;;;;;7.68;3.33;;;487.20;1792.00;;;;;;5031340;28;20088;-73
2023/05/02 06:58:59;;;;;;;5.47;3.00;;;487.30;1792.00;;;;;;5027300;28;20053;-77
2023/05/02 07:01:25;;;;;;;5.72;3.38;;;487.30;1740.80;;;;;;5032166;28;20056;-78
2023/05/02 07:03:51;;;;;;;6.45;3.47;;;512.10;1766.40;;;;;;5025883;28;20017;-71
2023/05/02 07:06:17;;;;;;;9.20;3.60;;;512.30;1766.40;;;;;;5028134;28;20021;-77
2023/05/02 07:08:43;;;;;;;10.80;3.60;;;512.40;1792.00;;;;;;5027274;28;20325;-72
2023/05/02 07:11:09;;;;;;;6.60;3.17;;;512.40;1792.00;;;;;;5029597;28;20499;-72
2023/05/02 07:13:34;;;;;;;7.28;3.63;;;512.40;1740.80;;;;;;5028617;28;20051;-71
2023/05/02 07:16:00;;;;;;;6.45;3.50;;;512.60;1792.00;;;;;;5033842;28;20084;-71
2023/05/02 07:18:26;;;;;;;10.77;3.75;;;512.90;1740.80;;;;;;5028297;28;20036;-72
2023/05/02 07:20:51;;;;;;;6.70;3.15;;;512.90;1715.20;;;;;;5029125;28;20049;-73
2023/05/02 07:23:17;;;;;;;12.25;3.95;;;537.60;1664.00;;;;;;5024943;28;20492;-74
2023/05/02 07:25:43;;;;;;;11.82;3.17;;;537.60;1664.00;;;;;;5027740;28;20091;-76
2023/05/02 07:28:09;;;;;;;17.13;3.85;;;537.80;1664.00;;;;;;5028215;28;20109;-72
2023/05/02 07:30:34;;;;;;;10.07;2.88;;;537.70;1612.80;;;;;;5028093;28;20108;-73
2023/05/02 07:33:00;;;;;;;12.38;3.78;;;537.80;1638.40;;;;;;5029551;28;20489;-72
2023/05/02 07:35:26;;;;;;;19.30;3.92;;;537.90;1638.40;;;;;;5025052;28;20465;-74
2023/05/02 07:37:52;;;;;;;15.32;3.17;;;537.80;1612.80;;;;;;5028564;28;20492;-74
2023/05/02 07:40:17;;;;;;;21.58;4.82;;;537.80;1612.80;;;;;;5023936;28;20401;-73
2023/05/02 07:42:43;;;;;;;7.45;3.83;;;537.80;1612.80;;;;;;5029331;28;20029;-71
2023/05/02 07:45:09;;;;;;;8.52;3.50;;;537.80;1612.80;;;;;;5029528;28;20024;-73
2023/05/02 07:47:35;;;;;;;10.70;3.80;;;538.00;1664.00;;;;;;5022062;28;20026;-72
2023/05/02 07:50:05;;;;;;;5.50;2.85;;;538.20;1638.40;;;;;;5032054;28;20032;-73
2023/05/02 07:52:31;;;;;;;10.80;2.80;;;538.30;1587.20;;;;;;5024027;28;20052;-71
2023/05/02 07:54:56;;;;;;;9.02;3.33;;;538.40;1587.20;;;;;;5024052;28;20104;-72
2023/05/02 07:57:22;;;;;;;9.05;3.90;;;538.40;1561.60;;;;;;5029468;28;20113;-73
2023/05/02 07:59:48;;;;;;;7.88;3.22;;;538.50;1561.60;;;;;;5032643;28;20017;-71
2023/05/02 08:02:16;;;;;;;7.07;3.38;;;538.50;1561.60;;;;;;5023983;28;20034;-71
2023/05/02 08:04:42;;;;;;;9.32;3.25;;;563.20;1561.60;;;;;;5026215;28;20492;-71
2023/05/02 08:07:07;;;;;;;15.23;3.63;;;563.30;1587.20;;;;;;5029655;28;20029;-74
2023/05/02 08:09:33;;;;;;;12.27;3.60;;;563.40;1561.60;;;;;;5027145;28;20547;-73
2023/05/02 08:12:01;;;;;;;9.48;3.72;;;563.30;1536.00;;;;;;5022627;28;20026;-71
2023/05/02 08:14:27;;;;;;;9.38;3.30;;;563.40;1536.00;;;;;;5027315;28;20013;-73
2023/05/02 08:16:52;;;;;;;9.52;3.42;;;563.50;1510.40;;;;;;5026109;28;20033;-72
2023/05/02 08:19:18;;;;;;;10.98;3.67;;;563.60;1536.00;;;;;;5023032;28;20096;-72
2023/05/02 08:21:44;;;;;;;11.93;3.53;;;563.60;1484.80;;;;;;5026560;28;20092;-71
2023/05/02 08:24:10;;;;;;;12.65;3.55;;;563.60;1484.80;;;;;;5029907;28;20068;-72
2023/05/02 08:26:35;;;;;;;11.45;3.88;;;563.70;1484.80;;;;;;5028571;28;20083;-72
2023/05/02 08:29:03;;;;;;;13.27;3.10;;;563.90;1510.40;;;;;;5025247;28;20477;-73
2023/05/02 08:31:29;;;;;;;12.40;3.03;;;563.90;1484.80;;;;;;5030303;28;20108;-72
2023/05/02 08:33:55;;;;;;;5.30;2.97;;;563.90;1484.80;;;;;;5021886;28;20441;-73
2023/05/02 08:36:21;;;;;;;9.98;3.00;;;563.70;1433.60;;;;;;5023537;28;20075;-74
2023/05/02 08:38:48;;;;;;;14.43;3.90;;;563.60;1459.20;;;;;;5026389;28;20038;-72
2023/05/02 08:41:18;;;;;;;15.00;3.00;;;563.70;1484.80;;;;;;5019505;28;20025;-72
2023/05/02 08:43:47;;;;;;;9.95;3.65;;;563.80;1459.20;;;;;;5024003;28;20484;-74
2023/05/02 08:46:14;;;;;;;7.32;3.38;;;563.80;1433.60;;;;;;5023726;28;20030;-72
2023/05/02 08:48:42;;;;;;;13.35;3.17;;;564.00;1510.40;;;;;;5020778;28;20105;-71
2023/05/02 08:51:11;;;;;;;10.88;2.95;;;564.00;1459.20;;;;;;5029666;28;20058;-72
2023/05/02 08:53:38;;;;;;;8.52;2.72;;;563.90;1433.60;;;;;;5027373;28;20050;-72
2023/05/02 08:56:06;;;;;;;11.85;3.13;;;563.90;1433.60;;;;;;5021234;28;20029;-73
2023/05/02 08:58:32;;;;;;;7.20;2.85;;;588.80;1459.20;;;;;;5032196;28;20064;-71
2023/05/02 09:01:03;;;;;;;10.32;2.95;;;588.90;1433.60;;;;;;5031999;28;20060;-72
2023/05/02 09:03:33;;;;;;;6.32;2.78;;;589.00;1433.60;;;;;;5030136;28;20109;-72
2023/05/02 09:06:09;;;;;;;9.50;3.33;;;589.00;1382.40;;;;;;5026747;28;20040;-71
2023/05/02 09:08:36;;;;;;;9.52;3.13;;;589.00;1408.00;;;;;;5023834;28;20030;-72
2023/05/02 09:11:03;;;;;;;11.77;3.38;;;589.20;1408.00;;;;;;5021628;28;20093;-72
2023/05/02 09:13:45;;;;;;;11.90;3.33;;;589.30;1382.40;;;;;;5024352;28;20029;-73
2023/05/02 09:16:18;;;;;;;8.80;3.17;;;589.30;1382.40;;;;;;5029420;28;20021;-75
2023/05/02 09:18:48;;;;;;;17.05;3.15;;;589.30;1356.80;;;;;;5031288;28;20041;-72
2023/05/02 09:21:19;;;;;;;8.57;3.13;;;589.40;1356.80;;;;;;5033041;28;20477;-70
2023/05/02 09:23:50;;;;;;;12.57;3.17;;;589.40;1356.80;;;;;;5033403;28;20029;-71
2023/05/02 09:26:30;;;;;;;20.63;4.63;;;589.60;1356.80;;;;;;5030311;28;20021;-70
2023/05/02 09:28:57;;;;;;;9.18;2.88;;;614.50;1382.40;;;;;;5023299;28;20116;-70
2023/05/02 09:31:32;;;;;;;8.82;3.22;;;614.50;1356.80;;;;;;5022073;28;20500;-70
2023/05/02 09:34:12;;;;;;;7.88;2.92;;;614.40;1331.20;;;;;;5027664;28;20030;-71
2023/05/02 09:36:40;;;;;;;8.70;2.70;;;614.70;1331.20;;;;;;5031901;28;20036;-71
2023/05/02 09:39:12;;;;;;;6.57;2.90;;;614.70;1331.20;;;;;;5031267;28;20033;-71
2023/05/02 09:41:46;;;;;;;10.23;3.38;;;614.80;1331.20;;;;;;5026693;28;20025;-71
2023/05/02 09:44:13;;;;;;;9.73;2.95;;;614.60;1280.00;;;;;;5029335;28;20029;-71
2023/05/02 09:46:44;;;;;;;8.25;3.22;;;614.40;1305.60;;;;;;5026503;28;20037;-71
2023/05/02 09:49:09;;;;;;;7.63;3.38;;;589.60;1305.60;;;;;;5032729;28;20017;-71
2023/05/02 09:51:35;;;;;;;6.82;2.92;;;589.70;1305.60;;;;;;5027511;28;20033;-70
2023/05/02 09:54:02;;;;;;;7.97;3.47;;;589.70;1305.60;;;;;;5035038;28;20521;-70
2023/05/02 09:56:27;;;;;;;8.38;3.38;;;614.60;1305.60;;;;;;5035888;28;20156;-71
2023/05/02 09:59:15;;;;;;;19.63;3.38;;;614.90;1305.60;;;;;;5028683;28;20102;-70
2023/05/02 10:01:42;;;;;;;7.13;2.80;;;615.10;1254.40;;;;;;5030576;28;20021;-70
2023/05/02 10:04:15;;;;;;;10.93;3.63;;;640.00;1280.00;;;;;;5024220;28;20200;-71
2023/05/02 10:06:43;;;;;;;15.07;3.67;;;615.20;1254.40;;;;;;5031411;28;20025;-71
2023/05/02 10:09:10;;;;;;;10.80;4.05;;;615.00;1254.40;;;;;;5028415;28;20370;-71
2023/05/02 10:11:39;;;;;;;8.23;2.75;;;614.70;1305.60;;;;;;5027694;28;20032;-75
2023/05/02 10:14:09;;;;;;;9.25;3.08;;;589.70;1280.00;;;;;;5035015;28;20018;-77
2023/05/02 10:16:45;;;;;;;9.40;3.47;;;614.60;1280.00;;;;;;5030402;28;20025;-70
2023/05/02 10:19:15;;;;;;;11.27;4.10;;;614.60;1280.00;;;;;;5020481;28;20397;-70
2023/05/02 10:21:43;;;;;;;12.85;3.60;;;614.90;1305.60;;;;;;5029457;28;20033;-71
2023/05/02 10:24:09;;;;;;;14.27;3.28;;;615.30;1305.60;;;;;;5018961;28;20028;-71
2023/05/02 10:26:35;;;;;;;11.80;4.53;;;640.40;1254.40;;;;;;5026676;28;20022;-71
2023/05/02 10:29:01;;;;;;;11.70;3.70;;;640.50;1254.40;;;;;;5025855;28;20022;-71
2023/05/02 10:31:32;;;;;;;10.00;3.28;;;640.10;1203.20;;;;;;5030335;28;20028;-70
2023/05/02 10:34:00;;;;;;;9.55;2.88;;;615.30;1228.80;;;;;;5027725;28;20029;-70
2023/05/02 10:36:27;;;;;;;9.38;3.15;;;640.20;1228.80;;;;;;5025593;28;20033;-69
2023/05/02 10:38:54;;;;;;;9.73;3.00;;;640.40;1203.20;;;;;;5031169;28;20026;-71
2023/05/02 10:41:23;;;;;;;8.70;3.30;;;640.00;1203.20;;;;;;5028035;28;20109;-70
2023/05/02 10:43:49;;;;;;;10.88;3.42;;;615.30;1254.40;;;;;;5031398;28;20536;-72
2023/05/02 10:46:35;;;;;;;11.35;3.30;;;615.20;1254.40;;;;;;5023342;28;20030;-71
2023/05/02 10:49:02;;;;;;;12.88;3.40;;;615.10;1228.80;;;;;;5031419;28;20496;-71
2023/05/02 10:51:30;;;;;;;11.93;4.20;;;615.20;1228.80;;;;;;5027916;28;20466;-71
2023/05/02 10:54:15;;;;;;;6.53;3.53;;;640.20;1254.40;;;;;;5027057;28;20042;-71
2023/05/02 10:57:14;;;;;;;9.98;2.95;;;640.70;1203.20;;;;;;5033512;28;20038;-71
2023/05/02 10:59:41;;;;;;;8.73;3.35;;;640.60;1177.60;;;;;;4992411;28;20179;-71
2023/05/02 11:02:22;;;;;;;6.68;3.47;;;640.90;1177.60;;;;;;4992768;28;20039;-75
2023/05/02 11:05:04;;;;;;;12.80;3.38;;;665.60;1228.80;;;;;;4992350;28;20045;-72
2023/05/02 11:07:32;;;;;;;7.78;3.35;;;665.70;1203.20;;;;;;4993028;28;20494;-72
2023/05/02 11:10:16;;;;;;;10.40;2.90;;;665.90;1203.20;;;;;;4992439;28;20049;-73
2023/05/02 11:12:56;;;;;;;9.98;2.88;;;665.90;1203.20;;;;;;4992953;28;20065;-72
2023/05/02 11:15:32;;;;;;;9.68;3.80;;;665.90;1203.20;;;;;;4992354;28;20034;-72
2023/05/02 11:18:13;;;;;;;7.13;3.00;;;665.90;1152.00;;;;;;4992366;28;20034;-73
2023/05/02 11:20:43;;;;;;;6.63;3.20;;;665.70;1177.60;;;;;;4992421;28;20030;-72
2023/05/02 11:23:15;;;;;;;9.43;3.03;;;665.90;1177.60;;;;;;4992039;28;20046;-72
2023/05/02 11:25:43;;;;;;;7.78;2.83;;;665.90;1177.60;;;;;;4992053;28;20057;-72
2023/05/02 11:28:36;;;;;;;7.47;3.15;;;665.90;1177.60;;;;;;4992222;28;20566;-71
2023/05/02 11:31:05;;;;;;;17.75;3.70;;;666.30;1177.60;;;;;;4992114;28;20034;-71
2023/05/02 11:33:31;;;;;;;10.00;4.03;;;666.20;1177.60;;;;;;4985763;28;20031;-71
2023/05/02 11:35:57;;;;;;;7.70;3.25;;;666.20;1152.00;;;;;;5021616;28;20034;-72
2023/05/02 11:38:25;;;;;;;5.65;2.95;;;666.40;1177.60;;;;;;5022405;28;20061;-72
2023/05/02 11:40:57;;;;;;;13.85;2.80;;;666.30;1152.00;;;;;;5029163;28;20109;-73
2023/05/02 11:43:25;;;;;;;7.53;3.33;;;666.40;1177.60;;;;;;5026650;28;20053;-79
2023/05/02 11:45:52;;;;;;;8.65;2.80;;;666.30;1152.00;;;;;;5024658;28;20018;-73
2023/05/02 11:48:21;;;;;;;7.82;2.65;;;691.30;1126.40;;;;;;5026758;28;20021;-72
2023/05/02 11:50:51;;;;;;;6.72;3.38;;;691.20;1126.40;;;;;;5022901;28;20022;-72
2023/05/02 11:53:27;;;;;;;8.23;2.90;;;691.30;1126.40;;;;;;5028514;28;20053;-72
2023/05/02 11:55:55;;;;;;;5.93;2.92;;;666.30;1126.40;;;;;;5025997;28;20096;-72
2023/05/02 11:58:28;;;;;;;5.88;2.70;;;666.00;1126.40;;;;;;5027114;28;20056;-72
2023/05/02 12:00:54;;;;;;;7.97;2.65;;;666.00;1126.40;;;;;;5024570;28;20030;-72
2023/05/02 12:03:27;;;;;;;9.93;3.33;;;666.00;1152.00;;;;;;5028400;28;20032;-72
2023/05/02 12:05:53;;;;;;;12.13;3.15;;;665.90;1152.00;;;;;;5033571;28;20025;-72
2023/05/02 12:08:28;;;;;;;7.30;2.78;;;665.60;1152.00;;;;;;5023989;28;20382;-72
2023/05/02 12:10:55;;;;;;;6.50;3.20;;;665.60;1152.00;;;;;;5029725;28;20033;-73
2023/05/02 12:13:25;;;;;;;9.85;3.20;;;665.80;1152.00;;;;;;5023924;28;20053;-73
2023/05/02 12:15:52;;;;;;;13.98;3.08;;;665.90;1152.00;;;;;;5026772;28;20026;-72
2023/05/02 12:18:22;;;;;;;8.68;3.35;;;666.00;1177.60;;;;;;5027851;28;20036;-75
2023/05/02 12:20:49;;;;;;;13.90;3.67;;;666.20;1152.00;;;;;;5025071;28;20075;-73
2023/05/02 12:23:15;;;;;;;20.02;5.07;;;666.20;1152.00;;;;;;5028143;28;20040;-74